Time;durP1;ratioP1;P1;durP2;ratioP2;P2;SDS_P1;SDS_P2;PMS_P1;PMS_P2;Temp;Humidity;BMP_temperature;BMP_pressure;BME280_temperature;BME280_humidity;BME280_pressure;Samples;Min_cycle;Max_cycle;Signal;HPM_P1;HPM_P2
2023/05/11 00:01:16;;;;;;;10.55;8.50;;;;;;;9.87;83.08;99855.72;5031644;28;20025;-75
2023/05/11 00:03:42;;;;;;;12.10;8.98;;;;;;;9.72;83.74;99851.38;5030587;28;20025;-75
2023/05/11 00:06:07;;;;;;;13.07;8.45;;;;;;;9.58;84.86;99848.66;5029982;28;20397;-75
2023/05/11 00:08:33;;;;;;;15.25;8.60;;;;;;;9.61;86.06;99844.41;5021436;28;20034;-76
2023/05/11 00:11:02;;;;;;;17.20;8.75;;;;;;;9.64;85.29;99843.75;5031713;28;20021;-75
2023/05/11 00:13:27;;;;;;;11.23;7.95;;;;;;;9.68;83.90;99859.56;5031362;28;20404;-75
2023/05/11 00:15:53;;;;;;;12.60;8.48;;;;;;;9.44;86.06;99845.94;5030179;28;20028;-76
2023/05/11 00:18:18;;;;;;;13.05;8.20;;;;;;;9.59;85.54;99858.69;5031907;28;20480;-75
2023/05/11 00:20:44;;;;;;;14.32;7.90;;;;;;;9.46;86.26;99863.19;5023988;28;20056;-75
2023/05/11 00:23:10;;;;;;;11.20;8.25;;;;;;;9.34;86.81;99868.53;5029551;28;20514;-76
2023/05/11 00:25:35;;;;;;;15.05;8.63;;;;;;;9.37;87.50;99876.28;5020027;28;20076;-75
2023/05/11 00:28:01;;;;;;;10.55;8.23;;;;;;;9.39;86.97;99876.78;5011951;28;20026;-76
2023/05/11 00:30:26;;;;;;;24.63;9.63;;;;;;;9.25;86.79;99874.03;5012389;28;20021;-75
2023/05/11 00:32:52;;;;;;;12.95;8.82;;;;;;;9.30;87.28;99871.16;5017784;28;20037;-75
2023/05/11 00:35:17;;;;;;;14.55;8.38;;;;;;;9.28;87.90;99870.59;5021342;28;20029;-75
2023/05/11 00:37:43;;;;;;;17.13;9.20;;;;;;;9.24;87.98;99866.81;5021203;28;20033;-75
2023/05/11 00:40:09;;;;;;;16.55;9.38;;;;;;;9.37;88.47;99877.09;5022429;28;20083;-75
2023/05/11 00:42:35;;;;;;;15.50;8.98;;;;;;;9.14;89.00;99876.25;5017713;28;20055;-75
2023/05/11 00:45:00;;;;;;;11.02;8.25;;;;;;;9.13;89.30;99869.84;5023931;28;20028;-75
2023/05/11 00:47:26;;;;;;;12.27;8.23;;;;;;;9.15;88.84;99861.16;5022950;28;20041;-76
2023/05/11 00:49:52;;;;;;;11.27;8.77;;;;;;;9.08;89.67;99875.56;5022673;28;20026;-75
2023/05/11 00:52:21;;;;;;;12.82;9.00;;;;;;;9.07;90.20;99864.69;5026826;28;20053;-75
2023/05/11 00:54:47;;;;;;;13.23;9.15;;;;;;;9.10;89.48;99864.91;5031105;28;20515;-75
2023/05/11 00:57:13;;;;;;;17.45;8.82;;;;;;;8.89;91.25;99863.72;5030937;28;20026;-75
2023/05/11 00:59:39;;;;;;;13.73;8.50;;;;;;;8.95;90.63;99852.13;5019413;28;20029;-75
2023/05/11 01:02:05;;;;;;;14.48;9.32;;;;;;;8.89;91.45;99853.41;5011321;28;20079;-75
2023/05/11 01:04:32;;;;;;;14.43;9.18;;;;;;;9.02;90.99;99860.06;5011462;28;20105;-74
2023/05/11 01:07:25;;;;;;;17.25;8.45;;;;;;;8.93;91.71;99861.94;5024569;28;20554;-75
2023/05/11 01:09:53;;;;;;;13.73;8.73;;;;;;;8.88;91.80;99868.50;5030911;28;20021;-75
2023/05/11 01:12:25;;;;;;;13.02;8.77;;;;;;;8.83;92.04;99869.44;5031151;28;20036;-75
2023/05/11 01:15:07;;;;;;;19.40;9.20;;;;;;;8.88;92.78;99874.06;5030794;28;20026;-75
2023/05/11 01:18:05;;;;;;;11.77;8.35;;;;;;;8.85;91.63;99875.50;5028707;28;20025;-75
2023/05/11 01:20:30;;;;;;;19.10;10.60;;;;;;;8.85;91.82;99875.50;5028644;28;20037;-76
2023/05/11 01:23:14;;;;;;;11.27;8.25;;;;;;;8.76;92.92;99879.38;5030260;28;20497;-75
2023/05/11 01:26:13;;;;;;;13.20;8.93;;;;;;;8.79;93.70;99879.53;5030458;28;20021;-75
2023/05/11 01:28:41;;;;;;;13.60;9.43;;;;;;;8.77;94.06;99886.59;5021879;28;20477;-75
2023/05/11 01:31:09;;;;;;;13.43;9.68;;;;;;;8.71;94.86;99885.88;5026133;28;20442;-75
2023/05/11 01:33:39;;;;;;;13.65;8.80;;;;;;;8.71;94.37;99885.88;5021897;28;20515;-75
2023/05/11 01:36:08;;;;;;;14.43;9.98;;;;;;;8.68;94.11;99886.47;5028447;28;20052;-75
2023/05/11 01:38:39;;;;;;;18.38;9.25;;;;;;;8.68;94.08;99881.75;5030220;28;20037;-75
2023/05/11 01:41:09;;;;;;;;;;;;;;;8.68;94.20;99890.13;5031070;28;20488;-75
2023/05/11 01:43:36;;;;;;;13.43;9.07;;;;;;;8.59;94.92;99889.19;5030637;28;19916;-76
2023/05/11 01:46:03;;;;;;;13.98;8.70;;;;;;;8.64;95.58;99885.47;5030133;28;20048;-75
2023/05/11 01:48:34;;;;;;;16.63;9.73;;;;;;;8.62;94.69;99879.38;5030462;28;20030;-75
2023/05/11 01:51:02;;;;;;;12.13;8.93;;;;;;;8.64;94.61;99879.88;5020232;28;20025;-76
2023/05/11 01:53:32;;;;;;;12.88;9.23;;;;;;;8.74;95.28;99878.84;5030557;28;20029;-75
2023/05/11 01:55:59;;;;;;;16.25;9.70;;;;;;;8.56;95.51;99879.47;5030532;28;20032;-75
2023/05/11 01:58:27;;;;;;;13.95;9.02;;;;;;;8.52;96.53;99880.44;5029162;28;20040;-75
2023/05/11 02:00:54;;;;;;;14.85;9.15;;;;;;;8.50;96.36;99888.22;5015948;28;20041;-75
2023/05/11 02:03:21;;;;;;;17.65;9.32;;;;;;;8.57;96.81;99878.38;5010615;28;20112;-75
2023/05/11 02:05:49;;;;;;;13.32;9.38;;;;;;;8.63;96.87;99883.81;5010698;28;20068;-75
2023/05/11 02:08:16;;;;;;;18.20;10.70;;;;;;;8.56;96.97;99896.19;5012687;28;20024;-76
2023/05/11 02:10:44;;;;;;;11.57;8.70;;;;;;;8.55;96.84;99893.75;5010583;28;20033;-75
2023/05/11 02:13:11;;;;;;;16.15;9.60;;;;;;;8.52;97.28;99881.25;5010669;28;20030;-75
2023/05/11 02:15:40;;;;;;;17.30;9.38;;;;;;;8.68;95.96;99881.75;5009126;28;20113;-75
2023/05/11 02:18:13;;;;;;;18.10;9.20;;;;;;;8.59;96.16;99889.19;5010858;28;20575;-75
2023/05/11 02:20:42;;;;;;;12.43;9.80;;;;;;;8.61;96.43;99888.88;5017372;28;20026;-75
2023/05/11 02:23:08;;;;;;;14.45;9.43;;;;;;;8.51;97.03;99892.72;5032033;28;20415;-75
2023/05/11 02:25:36;;;;;;;12.95;9.75;;;;;;;8.60;96.63;99895.59;5014773;28;20026;-75
2023/05/11 02:28:01;;;;;;;15.00;9.82;;;;;;;8.47;96.66;99886.91;5013924;28;20060;-75
2023/05/11 02:30:30;;;;;;;16.90;10.13;;;;;;;8.59;96.75;99888.38;5029116;28;20034;-75
2023/05/11 02:32:57;;;;;;;15.77;10.80;;;;;;;8.48;97.18;99887.72;5013832;28;20030;-76
2023/05/11 02:35:27;;;;;;;12.40;9.65;;;;;;;8.55;96.48;99888.16;5013484;28;20030;-75
2023/05/11 02:37:56;;;;;;;13.13;9.67;;;;;;;8.61;96.87;99891.66;5018023;28;20025;-75
2023/05/11 02:40:29;;;;;;;13.40;10.15;;;;;;;8.62;97.03;99884.97;5032551;28;20053;-75
2023/05/11 02:43:01;;;;;;;16.75;10.68;;;;;;;8.71;96.35;99885.88;5013642;28;20034;-76
2023/05/11 02:45:31;;;;;;;14.80;10.27;;;;;;;8.59;97.05;99899.53;5012310;28;20022;-75
2023/05/11 02:47:57;;;;;;;15.05;9.23;;;;;;;8.67;97.11;99898.78;5013407;28;20124;-75
2023/05/11 02:50:25;;;;;;;18.30;9.13;;;;;;;8.65;96.76;99890.75;5013527;28;20034;-75
2023/05/11 02:52:55;;;;;;;17.13;10.07;;;;;;;8.54;96.80;99892.91;5020647;28;20029;-75
2023/05/11 02:55:22;;;;;;;15.82;10.20;;;;;;;8.62;97.07;99894.13;5033303;28;20476;-75
2023/05/11 02:57:48;;;;;;;15.20;9.88;;;;;;;8.55;97.04;99886.19;5027356;28;20526;-75
2023/05/11 03:00:13;;;;;;;17.08;10.40;;;;;;;8.54;97.12;99894.88;5012070;28;20108;-75
2023/05/11 03:02:39;;;;;;;16.15;10.50;;;;;;;8.49;97.76;99895.78;5019144;28;20025;-75
2023/05/11 03:05:05;;;;;;;13.27;9.52;;;;;;;8.54;98.00;99898.47;5033230;28;20089;-75
2023/05/11 03:07:32;;;;;;;19.05;10.15;;;;;;;8.56;97.77;99904.56;5032158;28;20486;-75
2023/05/11 03:09:58;;;;;;;13.48;10.07;;;;;;;8.59;97.82;99899.53;5029984;28;20066;-75
2023/05/11 03:12:24;;;;;;;18.33;11.35;;;;;;;8.48;97.93;99907.22;5013001;28;20080;-76
2023/05/11 03:14:51;;;;;;;19.00;10.20;;;;;;;8.47;97.84;99902.78;5018274;28;20033;-75
2023/05/11 03:17:18;;;;;;;16.55;9.95;;;;;;;8.45;99.25;99905.06;5013042;28;20033;-76
2023/05/11 03:19:44;;;;;;;19.08;11.25;;;;;;;8.36;98.99;99885.47;5013065;28;20087;-75
2023/05/11 03:22:10;;;;;;;17.33;10.75;;;;;;;8.37;99.45;99887.91;5023679;28;20481;-75
2023/05/11 03:24:37;;;;;;;15.05;9.95;;;;;;;8.43;99.37;99905.38;5013018;28;20061;-75
2023/05/11 03:27:04;;;;;;;17.60;12.02;;;;;;;8.43;98.91;99897.84;5012994;28;20018;-75
2023/05/11 03:29:33;;;;;;;18.48;10.57;;;;;;;8.47;99.11;99903.63;5011460;28;20088;-75
2023/05/11 03:31:58;;;;;;;15.95;10.73;;;;;;;8.49;99.91;99904.16;5018475;28;20060;-76
2023/05/11 03:34:24;;;;;;;18.65;11.02;;;;;;;8.48;99.00;99905.28;5029268;28;20022;-75
2023/05/11 03:36:51;;;;;;;16.00;10.63;;;;;;;8.47;99.92;99908.38;5027669;28;20025;-75
2023/05/11 03:39:19;;;;;;;20.23;11.15;;;;;;;8.46;99.83;99901.16;5032326;28;20028;-76
2023/05/11 03:41:48;;;;;;;17.42;11.52;;;;;;;8.27;100.00;99894.53;5030523;28;20025;-75
2023/05/11 03:44:18;;;;;;;18.98;12.75;;;;;;;8.39;100.00;99891.25;5025733;28;20091;-75
2023/05/11 03:46:46;;;;;;;23.83;11.38;;;;;;;8.28;100.00;99889.81;5032256;28;20100;-75
2023/05/11 03:49:14;;;;;;;16.35;12.23;;;;;;;8.36;100.00;99899.41;5024090;28;20037;-75
2023/05/11 03:51:40;;;;;;;20.27;13.52;;;;;;;8.39;99.25;99887.63;5012419;28;20488;-75
2023/05/11 03:54:06;;;;;;;17.42;12.15;;;;;;;8.48;99.90;99891.34;5012421;28;20029;-75
2023/05/11 03:56:35;;;;;;;14.10;11.73;;;;;;;8.45;99.31;99894.75;5012332;28;20481;-75
2023/05/11 03:59:02;;;;;;;20.63;13.38;;;;;;;8.53;98.61;99907.16;5012260;28;20018;-72
2023/05/11 04:01:29;;;;;;;22.13;12.88;;;;;;;8.42;99.42;99895.34;5025078;28;20029;-73
2023/05/11 04:03:54;;;;;;;19.45;12.50;;;;;;;8.51;98.59;99901.91;5030730;28;20032;-73
2023/05/11 04:06:20;;;;;;;18.85;12.88;;;;;;;8.48;99.17;99904.44;5028910;28;20112;-75
2023/05/11 04:08:45;;;;;;;28.20;13.45;;;;;;;8.45;99.67;99910.66;5031289;28;20029;-73
2023/05/11 04:11:11;;;;;;;18.17;11.48;;;;;;;8.53;98.43;99913.56;5031829;28;20499;-74
2023/05/11 04:13:36;;;;;;;22.02;13.15;;;;;;;8.55;98.89;99916.84;5013794;28;20076;-76
2023/05/11 04:16:02;;;;;;;20.85;14.18;;;;;;;8.53;99.42;99916.34;5011996;28;20108;-75
2023/05/11 04:18:28;;;;;;;22.38;13.27;;;;;;;8.64;98.16;99916.13;5012052;28;20033;-74
2023/05/11 04:20:54;;;;;;;22.35;12.77;;;;;;;8.68;97.53;99919.94;5012079;28;20096;-75
2023/05/11 04:23:19;;;;;;;22.75;12.90;;;;;;;8.70;97.41;99923.28;5020734;28;20643;-74
2023/05/11 04:25:45;;;;;;;19.48;13.20;;;;;;;8.81;97.29;99919.13;5021556;28;20408;-74
2023/05/11 04:28:10;;;;;;;23.70;12.73;;;;;;;8.73;97.13;99927.38;5030273;28;20037;-74
2023/05/11 04:30:35;;;;;;;21.23;11.93;;;;;;;8.66;98.65;99922.22;5020130;28;20021;-74
2023/05/11 04:33:01;;;;;;;15.95;11.40;;;;;;;8.70;97.78;99923.28;5026060;28;20476;-75
2023/05/11 04:35:26;;;;;;;17.25;12.32;;;;;;;8.89;96.48;99925.94;5017980;28;20396;-73
2023/05/11 04:37:52;;;;;;;21.83;11.02;;;;;;;8.88;96.38;99923.44;5015188;28;20409;-74
2023/05/11 04:40:17;;;;;;;16.05;9.75;;;;;;;8.91;96.34;99922.81;5021463;28;20030;-71
2023/05/11 04:42:43;;;;;;;15.93;9.98;;;;;;;8.92;96.34;99930.03;5022465;28;20021;-72
2023/05/11 04:45:09;;;;;;;16.25;10.13;;;;;;;8.95;95.72;99919.09;5020109;28;20500;-72
2023/05/11 04:47:34;;;;;;;16.33;9.65;;;;;;;9.07;94.99;99928.88;5016750;28;20038;-71
2023/05/11 04:50:00;;;;;;;13.68;10.52;;;;;;;9.01;95.44;99928.16;5026015;28;20028;-72
2023/05/11 04:52:25;;;;;;;13.77;9.20;;;;;;;9.06;94.97;99925.28;5021067;28;20037;-73
2023/05/11 04:54:51;;;;;;;14.65;9.23;;;;;;;8.91;95.43;99928.38;5013977;28;20110;-74
2023/05/11 04:57:17;;;;;;;20.08;10.70;;;;;;;9.07;95.10;99923.31;5019668;28;20488;-73
2023/05/11 04:59:42;;;;;;;18.73;9.90;;;;;;;9.17;94.57;99931.44;5027226;28;20029;-74
2023/05/11 05:02:08;;;;;;;19.27;9.40;;;;;;;9.22;94.10;99938.88;5026376;28;20405;-74
2023/05/11 05:04:33;;;;;;;16.90;10.52;;;;;;;9.25;93.41;99941.03;5026567;28;20053;-73
2023/05/11 05:06:59;;;;;;;17.70;10.50;;;;;;;9.26;93.00;99937.94;5023899;28;20025;-74
2023/05/11 05:09:24;;;;;;;12.38;8.90;;;;;;;9.24;92.33;99948.59;5012037;28;20029;-75
2023/05/11 05:11:50;;;;;;;18.15;9.50;;;;;;;9.39;92.02;99950.19;5017272;28;20029;-74
2023/05/11 05:14:15;;;;;;;17.20;9.52;;;;;;;9.31;91.73;99947.31;5027610;28;20033;-76
2023/05/11 05:16:41;;;;;;;13.40;9.05;;;;;;;9.47;90.68;99956.16;5024741;28;20025;-71
2023/05/11 05:19:08;;;;;;;17.70;10.23;;;;;;;9.54;91.38;99946.22;5018027;28;20022;-73
2023/05/11 05:21:34;;;;;;;17.60;11.25;;;;;;;9.45;90.49;99936.13;5021456;28;20029;-72
2023/05/11 05:24:00;;;;;;;18.52;10.65;;;;;;;9.66;91.23;99953.19;5029031;28;20045;-73
2023/05/11 05:26:26;;;;;;;19.90;11.02;;;;;;;9.63;90.86;99945.47;5034298;28;20033;-73
2023/05/11 05:28:51;;;;;;;16.00;10.43;;;;;;;9.60;91.48;99954.47;5018003;28;20040;-74
2023/05/11 05:31:16;;;;;;;15.02;9.43;;;;;;;9.54;90.13;99954.59;5026038;28;20514;-77
2023/05/11 05:33:42;;;;;;;15.02;9.38;;;;;;;9.59;90.27;99941.63;5031313;28;20510;-74
2023/05/11 05:36:08;;;;;;;18.95;10.15;;;;;;;9.62;89.83;99960.56;5020993;28;20021;-74
2023/05/11 05:38:33;;;;;;;26.23;10.32;;;;;;;9.78;90.60;99964.63;5021009;28;20017;-75
2023/05/11 05:40:59;;;;;;;11.00;7.50;;;;;;;9.59;90.58;99962.03;5022663;28;20387;-74
2023/05/11 05:43:24;;;;;;;11.55;9.38;;;;;;;9.71;89.95;99971.81;5027530;28;20380;-74
2023/05/11 05:45:50;;;;;;;13.48;7.97;;;;;;;9.72;90.54;99959.47;5023071;28;20021;-76
2023/05/11 05:48:15;;;;;;;15.25;8.68;;;;;;;9.79;89.73;99951.50;5027019;28;20060;-77
2023/05/11 05:50:41;;;;;;;12.23;7.90;;;;;;;9.85;89.92;99968.94;5025524;28;20032;-81
2023/05/11 05:53:06;;;;;;;14.68;8.88;;;;;;;9.76;90.17;99975.28;5019925;28;20026;-79
2023/05/11 05:55:32;;;;;;;12.23;8.10;;;;;;;9.86;89.26;99963.03;5023910;28;20092;-77
2023/05/11 05:57:57;;;;;;;12.90;8.52;;;;;;;9.94;88.68;99972.59;5026415;28;20030;-75
2023/05/11 06:00:23;;;;;;;16.73;8.77;;;;;;;10.05;90.00;99964.81;5022996;28;20044;-75
2023/05/11 06:02:48;;;;;;;16.50;8.30;;;;;;;10.18;88.25;99969.47;5020895;28;20041;-73
2023/05/11 06:05:13;;;;;;;16.13;9.15;;;;;;;10.15;86.68;99964.53;5021250;28;20392;-74
2023/05/11 06:07:39;;;;;;;9.32;7.32;;;;;;;10.23;86.40;99966.53;5022788;28;20021;-74
2023/05/11 06:10:05;;;;;;;14.23;8.90;;;;;;;10.24;87.08;99957.00;5021867;28;20032;-74
2023/05/11 06:12:30;;;;;;;14.48;8.23;;;;;;;10.23;86.47;99979.72;5018676;28;20112;-75
2023/05/11 06:14:56;;;;;;;21.00;8.10;;;;;;;10.29;85.33;99967.22;5025731;28;20030;-75
2023/05/11 06:17:21;;;;;;;9.95;6.90;;;;;;;10.42;84.59;99970.28;5026033;28;20047;-75
2023/05/11 06:19:48;;;;;;;10.77;7.00;;;;;;;10.25;84.44;99963.44;5032692;28;20029;-75
2023/05/11 06:22:14;;;;;;;12.68;6.75;;;;;;;10.34;85.83;99969.06;5023129;28;20040;-75
2023/05/11 06:24:39;;;;;;;10.98;7.13;;;;;;;10.41;84.56;99972.25;5028541;28;20017;-75
2023/05/11 06:27:05;;;;;;;8.80;6.97;;;;;;;10.47;85.26;99973.75;5018772;28;20033;-75
2023/05/11 06:29:30;;;;;;;10.02;7.72;;;;;;;10.60;83.75;99969.22;5029637;28;20026;-75
2023/05/11 06:31:56;;;;;;;14.13;8.00;;;;;;;10.63;84.16;99962.97;5018380;28;20025;-75
2023/05/11 06:34:22;;;;;;;9.90;7.85;;;;;;;10.80;84.04;99965.00;5018612;28;20029;-75
2023/05/11 06:36:48;;;;;;;15.50;9.05;;;;;;;10.90;82.81;99960.25;5021865;28;20428;-75
2023/05/11 06:39:14;;;;;;;13.27;7.30;;;;;;;10.93;81.72;99965.19;5020137;28;20043;-74
2023/05/11 06:41:39;;;;;;;15.40;8.73;;;;;;;11.07;82.58;99965.88;5021119;28;20100;-74
2023/05/11 06:44:05;;;;;;;13.77;8.05;;;;;;;11.09;81.08;99968.38;5018554;28;20104;-75
2023/05/11 06:46:30;;;;;;;10.90;8.25;;;;;;;10.94;82.08;99959.28;5019487;28;20505;-75
2023/05/11 06:48:56;;;;;;;13.75;8.82;;;;;;;10.91;81.55;99956.31;5025522;28;20430;-74
2023/05/11 06:51:22;;;;;;;17.10;8.57;;;;;;;11.00;81.90;99959.97;5022628;28;20025;-75
2023/05/11 06:53:48;;;;;;;22.10;8.88;;;;;;;11.07;81.96;99973.47;5023212;28;20492;-75
2023/05/11 06:56:14;;;;;;;12.45;8.48;;;;;;;10.91;81.06;99967.50;5025181;28;20032;-75
2023/05/11 06:58:39;;;;;;;17.20;9.75;;;;;;;10.80;81.44;99970.59;5030379;28;20053;-74
2023/05/11 07:01:06;;;;;;;20.38;12.25;;;;;;;10.93;81.52;99976.41;5031858;28;20081;-75
2023/05/11 07:03:33;;;;;;;16.98;10.05;;;;;;;10.88;83.29;99968.97;5031513;28;20052;-74
2023/05/11 07:05:58;;;;;;;10.23;8.68;;;;;;;10.84;83.93;99969.94;5021342;28;20048;-74
2023/05/11 07:08:24;;;;;;;11.60;8.27;;;;;;;10.86;82.58;99964.84;5032167;28;20025;-74
2023/05/11 07:10:50;;;;;;;13.88;8.00;;;;;;;10.91;82.99;99957.13;5031392;28;20515;-76
2023/05/11 07:13:16;;;;;;;21.73;9.55;;;;;;;11.05;82.16;99957.00;5021296;28;20104;-75
2023/05/11 07:15:41;;;;;;;9.40;7.65;;;;;;;10.95;80.90;99957.31;5030354;28;20116;-74
2023/05/11 07:18:06;;;;;;;10.00;7.82;;;;;;;10.83;81.23;99960.75;5023158;28;20064;-75
2023/05/11 07:20:35;;;;;;;11.95;9.00;;;;;;;10.95;82.19;99960.09;5023265;28;20025;-75
2023/05/11 07:23:00;;;;;;;15.82;8.90;;;;;;;10.95;82.14;99951.72;5014312;28;20061;-75
2023/05/11 07:25:26;;;;;;;9.30;7.68;;;;;;;10.95;82.60;99958.13;5017594;28;20060;-74
2023/05/11 07:27:51;;;;;;;8.27;7.47;;;;;;;10.95;80.89;99958.13;5013471;28;20029;-75
2023/05/11 07:30:17;;;;;;;11.35;9.13;;;;;;;11.01;80.84;99963.56;5018569;28;20208;-75
2023/05/11 07:32:42;;;;;;;17.25;9.70;;;;;;;11.14;81.38;99964.59;5023197;28;20021;-75
2023/05/11 07:35:08;;;;;;;11.02;8.40;;;;;;;11.12;79.99;99959.31;5018605;28;20038;-75
2023/05/11 07:37:33;;;;;;;13.98;9.18;;;;;;;11.24;78.22;99961.50;5022132;28;20074;-75
2023/05/11 07:39:59;;;;;;;9.25;8.25;;;;;;;11.31;77.22;99970.22;5031080;28;20495;-75
2023/05/11 07:42:24;;;;;;;11.85;9.52;;;;;;;11.27;78.35;99969.22;5030952;28;20025;-74
2023/05/11 07:44:49;;;;;;;13.95;8.90;;;;;;;11.37;78.56;99971.72;5027264;28;20022;-75
2023/05/11 07:47:17;;;;;;;11.73;8.70;;;;;;;11.42;77.79;99948.31;5011957;28;20104;-75
2023/05/11 07:49:43;;;;;;;9.55;7.72;;;;;;;11.38;77.07;99959.34;5020084;28;20099;-74
2023/05/11 07:52:08;;;;;;;12.18;8.93;;;;;;;11.50;77.31;99955.06;5025530;28;20488;-75
2023/05/11 07:54:34;;;;;;;10.20;6.85;;;;;;;11.57;75.15;99960.19;5027917;28;20033;-75
2023/05/11 07:57:00;;;;;;;11.32;7.40;;;;;;;11.59;74.82;99958.69;5030223;28;20029;-75
2023/05/11 07:59:25;;;;;;;12.57;8.77;;;;;;;11.68;74.42;99960.66;5028626;28;20029;-75
2023/05/11 08:01:51;;;;;;;12.50;8.63;;;;;;;11.71;74.55;99954.41;5022196;28;20018;-75
2023/05/11 08:04:16;;;;;;;11.75;8.88;;;;;;;11.73;74.73;99957.69;5019215;28;20038;-75
2023/05/11 08:06:42;;;;;;;13.93;8.63;;;;;;;11.72;72.91;99956.88;5019844;28;20079;-75
2023/05/11 08:09:07;;;;;;;16.40;9.40;;;;;;;11.99;72.93;99962.44;5028576;28;20411;-75
2023/05/11 08:11:33;;;;;;;13.82;9.55;;;;;;;11.90;72.59;99957.66;5025906;28;20400;-75
2023/05/11 08:13:58;;;;;;;14.80;8.95;;;;;;;12.07;72.53;99967.25;5018973;28;20025;-75
2023/05/11 08:16:24;;;;;;;9.55;7.78;;;;;;;12.04;71.87;99959.50;5011342;28;20018;-75
2023/05/11 08:18:49;;;;;;;14.23;9.57;;;;;;;12.08;71.22;99963.28;5015593;28;20791;-74
2023/05/11 08:21:14;;;;;;;10.15;8.43;;;;;;;11.82;72.76;99960.50;5017047;28;20531;-74
2023/05/11 08:23:40;;;;;;;11.55;8.70;;;;;;;11.85;72.95;99966.25;5026628;28;20508;-74
2023/05/11 08:26:05;;;;;;;13.60;8.85;;;;;;;11.86;72.68;99959.50;5022935;28;20033;-74
2023/05/11 08:28:31;;;;;;;10.40;8.30;;;;;;;11.89;72.26;99966.44;5014285;28;20112;-74
2023/05/11 08:30:58;;;;;;;15.18;8.23;;;;;;;11.99;72.70;99962.44;5014081;28;20408;-74
2023/05/11 08:33:24;;;;;;;10.52;7.82;;;;;;;12.08;73.34;99964.09;5018706;28;20408;-74
2023/05/11 08:35:51;;;;;;;11.43;8.40;;;;;;;12.24;71.85;99971.97;5030557;28;20076;-76
2023/05/11 08:38:17;;;;;;;12.52;7.53;;;;;;;12.07;71.29;99965.25;5022456;28;20116;-74
2023/05/11 08:40:47;;;;;;;12.45;7.60;;;;;;;12.07;70.10;99964.44;5031285;28;20105;-75
2023/05/11 08:43:17;;;;;;;13.85;8.32;;;;;;;12.25;70.65;99972.81;5020424;28;20092;-74
2023/05/11 08:45:48;;;;;;;10.38;6.57;;;;;;;12.21;69.25;99967.88;5015666;28;20087;-74
2023/05/11 08:48:19;;;;;;;7.85;6.35;;;;;;;12.18;69.68;99967.72;5029180;28;20131;-74
2023/05/11 08:50:44;;;;;;;17.05;6.43;;;;;;;12.13;70.11;99959.50;5039123;28;20060;-74
2023/05/11 08:53:11;;;;;;;11.02;7.22;;;;;;;12.26;69.35;99960.44;5025721;28;20083;-74
2023/05/11 08:55:37;;;;;;;9.38;6.53;;;;;;;12.26;70.68;99957.63;5026689;28;20044;-74
2023/05/11 08:58:05;;;;;;;18.35;8.80;;;;;;;12.52;70.19;99954.75;5025618;28;20424;-75
2023/05/11 09:00:32;;;;;;;9.43;6.40;;;;;;;12.52;68.24;99953.91;5020380;28;20044;-74
2023/05/11 09:02:58;;;;;;;8.63;7.10;;;;;;;12.50;69.08;99955.06;5009602;28;20088;-74
2023/05/11 09:05:25;;;;;;;10.40;6.80;;;;;;;12.56;69.09;99950.09;5015363;28;20083;-74
2023/05/11 09:07:55;;;;;;;7.00;6.25;;;;;;;12.65;68.02;99958.47;5031000;28;20025;-74
2023/05/11 09:10:20;;;;;;;10.55;8.07;;;;;;;12.77;68.63;99954.94;5017007;28;20026;-74
2023/05/11 09:12:46;;;;;;;13.38;7.55;;;;;;;12.70;69.34;99958.28;5029426;28;20519;-74
2023/05/11 09:15:12;;;;;;;12.85;7.10;;;;;;;12.87;68.25;99959.34;5030623;28;20030;-74
2023/05/11 09:17:37;;;;;;;9.20;5.60;;;;;;;12.74;68.89;99956.44;5027947;28;20041;-76
2023/05/11 09:20:05;;;;;;;9.77;6.07;;;;;;;12.61;68.46;99941.50;5031076;28;20087;-73
2023/05/11 09:22:32;;;;;;;8.93;6.05;;;;;;;12.63;68.94;99944.78;5025506;28;20102;-75
2023/05/11 09:25:00;;;;;;;10.07;7.05;;;;;;;12.76;68.41;99945.69;5018987;28;20029;-74
2023/05/11 09:27:26;;;;;;;8.88;6.18;;;;;;;12.69;70.05;99938.97;5025832;28;20104;-75
2023/05/11 09:29:54;;;;;;;10.20;5.43;;;;;;;12.63;71.46;99935.53;5031524;28;20137;-76
2023/05/11 09:32:20;;;;;;;8.95;5.30;;;;;;;12.68;71.42;99921.31;5029185;28;20026;-75
2023/05/11 09:34:46;;;;;;;7.65;4.55;;;;;;;12.70;69.97;99927.41;5025955;28;20065;-73
2023/05/11 09:37:16;;;;;;;8.80;4.88;;;;;;;12.75;70.23;99923.59;5028451;28;20033;-72
2023/05/11 09:39:42;;;;;;;6.72;5.15;;;;;;;12.91;71.26;99921.00;5026701;28;20454;-75
2023/05/11 09:42:14;;;;;;;9.30;6.63;;;;;;;13.00;69.75;99923.78;5029138;28;20029;-75
2023/05/11 09:44:40;;;;;;;14.70;6.70;;;;;;;13.10;69.77;99911.31;5025119;28;20037;-75
2023/05/11 09:47:24;;;;;;;9.13;6.68;;;;;;;13.17;68.31;99922.84;5025621;28;20053;-74
2023/05/11 09:49:49;;;;;;;7.22;5.68;;;;;;;13.37;69.01;99920.34;5033561;28;20407;-75
2023/05/11 09:52:17;;;;;;;8.52;6.78;;;;;;;13.28;67.66;99924.06;5036921;28;20025;-77
2023/05/11 09:54:44;;;;;;;10.52;6.40;;;;;;;13.38;67.45;99922.00;5021851;28;20095;-74
2023/05/11 09:57:27;;;;;;;6.18;5.65;;;;;;;13.24;68.29;99911.84;5022741;28;20029;-72
2023/05/11 09:59:54;;;;;;;10.20;6.70;;;;;;;13.34;67.98;99919.88;5019620;28;20038;-73
2023/05/11 10:02:23;;;;;;;7.72;5.88;;;;;;;13.47;67.98;99917.16;5021739;28;20040;-74
2023/05/11 10:04:50;;;;;;;9.13;6.20;;;;;;;13.64;68.52;99912.56;5019052;28;20028;-73
2023/05/11 10:07:22;;;;;;;11.98;6.40;;;;;;;13.74;65.72;99909.31;5024098;28;20951;-75
2023/05/11 10:09:49;;;;;;;9.63;7.10;;;;;;;13.90;64.27;99913.13;5020730;28;20762;-74
2023/05/11 10:12:15;;;;;;;13.63;7.40;;;;;;;14.07;63.00;99911.28;5013557;28;20535;-73
2023/05/11 10:14:42;;;;;;;12.55;7.65;;;;;;;14.24;62.97;99901.81;5016184;28;20034;-75
2023/05/11 10:17:10;;;;;;;10.70;7.57;;;;;;;14.32;63.46;99883.19;5019559;28;20549;-75
2023/05/11 10:19:35;;;;;;;9.60;7.10;;;;;;;14.29;63.03;99895.94;5019016;28;20428;-74
2023/05/11 10:22:02;;;;;;;8.13;7.03;;;;;;;14.22;63.73;99889.25;5016906;28;20033;-73
2023/05/11 10:24:28;;;;;;;11.35;7.43;;;;;;;14.15;61.47;99899.13;5020549;28;20154;-73
2023/05/11 10:26:56;;;;;;;7.47;6.78;;;;;;;14.16;61.69;99897.09;5015400;28;20141;-74
2023/05/11 10:29:22;;;;;;;11.25;7.90;;;;;;;14.27;61.84;99897.50;5030873;28;20044;-73
2023/05/11 10:31:50;;;;;;;8.00;6.78;;;;;;;14.43;63.35;99886.38;5024502;28;20476;-75
2023/05/11 10:34:16;;;;;;;8.55;6.57;;;;;;;14.22;63.00;99890.09;5020980;28;20136;-74
2023/05/11 10:36:45;;;;;;;9.32;6.53;;;;;;;14.55;61.52;99888.34;5018120;28;20404;-74
2023/05/11 10:39:10;;;;;;;7.15;5.93;;;;;;;14.86;60.55;99881.34;5015580;28;20029;-74
2023/05/11 10:41:45;;;;;;;11.38;7.57;;;;;;;15.01;60.49;99886.22;5018441;28;20408;-74
2023/05/11 10:44:22;;;;;;;12.68;6.22;;;;;;;14.94;58.80;99879.56;5021720;28;20556;-74
2023/05/11 10:47:03;;;;;;;9.30;6.10;;;;;;;14.91;59.22;99877.47;5016060;28;20406;-74
2023/05/11 10:49:51;;;;;;;6.22;5.63;;;;;;;14.77;61.95;99886.28;5012990;28;20459;-74
2023/05/11 10:52:53;;;;;;;9.00;5.80;;;;;;;14.53;60.23;99885.88;5014914;28;20145;-74
2023/05/11 10:55:36;;;;;;;6.88;5.28;;;;;;;14.57;60.78;99886.00;5012839;28;20018;-73
2023/05/11 10:58:12;;;;;;;7.00;5.28;;;;;;;14.60;59.25;99876.88;5022026;28;20030;-74
2023/05/11 11:01:04;;;;;;;7.32;5.78;;;;;;;14.72;59.89;99878.88;5014156;28;20500;-74
2023/05/11 11:03:30;;;;;;;9.65;6.10;;;;;;;14.76;61.05;99879.00;5012495;28;20053;-74
2023/05/11 11:05:56;;;;;;;10.68;6.88;;;;;;;14.84;61.52;99878.03;5016385;28;20072;-74
2023/05/11 11:08:21;;;;;;;7.22;6.63;;;;;;;14.82;59.03;99860.66;5025920;28;20025;-74
2023/05/11 11:10:50;;;;;;;11.18;7.35;;;;;;;14.92;58.41;99871.47;5021944;28;20555;-74
2023/05/11 11:13:18;;;;;;;7.60;6.55;;;;;;;14.80;59.54;99877.94;5012907;28;20543;-74
2023/05/11 11:15:53;;;;;;;10.75;8.10;;;;;;;14.69;59.45;99874.75;5019777;28;20025;-74
2023/05/11 11:18:28;;;;;;;11.75;9.80;;;;;;;14.84;58.72;99866.78;5021746;28;20029;-73
2023/05/11 11:20:55;;;;;;;13.18;6.75;;;;;;;14.72;58.82;99853.53;5032867;28;20022;-73
2023/05/11 11:23:40;;;;;;;8.68;6.40;;;;;;;14.67;59.55;99857.38;5024030;28;20036;-72
2023/05/11 11:26:07;;;;;;;9.45;6.72;;;;;;;14.60;60.42;99857.97;5021239;28;20029;-72
2023/05/11 11:28:59;;;;;;;10.05;7.13;;;;;;;14.73;61.02;99847.56;5024601;28;20048;-74
2023/05/11 11:31:28;;;;;;;9.40;7.50;;;;;;;14.95;60.33;99838.94;5023237;28;20456;-72